createdAt,value
2023-05-16T00:00:36.198Z,11.80
2023-05-16T00:03:06.349Z,11.80
2023-05-16T00:05:35.340Z,11.80
2023-05-16T00:08:03.992Z,11.70
2023-05-16T00:10:33.993Z,11.70
2023-05-16T00:13:02.970Z,11.70
2023-05-16T00:15:33.335Z,11.60
2023-05-16T00:18:02.077Z,11.60
2023-05-16T00:20:31.924Z,11.60
2023-05-16T00:23:01.384Z,11.50
2023-05-16T00:25:30.258Z,11.50
2023-05-16T00:28:00.300Z,11.50
2023-05-16T00:30:29.149Z,11.50
2023-05-16T00:32:57.932Z,11.40
2023-05-16T00:35:27.056Z,11.40
2023-05-16T00:37:55.893Z,11.40
2023-05-16T00:40:24.696Z,11.40
2023-05-16T00:42:53.468Z,11.30
2023-05-16T00:45:23.565Z,11.30
2023-05-16T00:47:52.672Z,11.30
2023-05-16T00:50:21.494Z,11.20
2023-05-16T00:52:51.386Z,11.20
2023-05-16T00:55:20.211Z,11.20
2023-05-16T00:57:48.972Z,11.20
2023-05-16T01:00:19.900Z,11.10
2023-05-16T01:02:53.339Z,11.10
2023-05-16T01:05:22.388Z,11.10
2023-05-16T01:07:50.997Z,11.00
2023-05-16T01:10:19.893Z,11.00
2023-05-16T01:13:02.247Z,10.90
2023-05-16T01:15:37.164Z,10.90
2023-05-16T01:18:14.853Z,10.90
2023-05-16T01:20:50.284Z,10.90
2023-05-16T01:23:28.982Z,10.90
2023-05-16T01:26:09.819Z,10.80
2023-05-16T01:28:39.224Z,10.80
2023-05-16T01:31:07.930Z,10.90
2023-05-16T01:33:36.597Z,10.90
2023-05-16T01:36:12.524Z,11.00
2023-05-16T01:38:46.161Z,11.00
2023-05-16T01:41:23.056Z,11.00
2023-05-16T01:43:56.726Z,11.10
2023-05-16T01:46:30.005Z,11.10
2023-05-16T01:49:17.101Z,11.10
2023-05-16T01:51:51.798Z,11.20
2023-05-16T01:54:22.840Z,11.20
2023-05-16T01:56:54.608Z,11.20
2023-05-16T01:59:25.097Z,11.20
2023-05-16T02:01:56.045Z,11.20
2023-05-16T02:04:24.814Z,11.20
2023-05-16T02:06:53.871Z,11.30
2023-05-16T02:09:22.637Z,11.30
2023-05-16T02:11:52.898Z,11.20
2023-05-16T02:14:21.680Z,11.20
2023-05-16T02:16:50.584Z,11.20
2023-05-16T02:19:19.551Z,11.20
2023-05-16T02:21:48.415Z,11.30
2023-05-16T02:24:17.211Z,11.30
2023-05-16T02:26:46.010Z,11.30
2023-05-16T02:29:16.611Z,11.30
2023-05-16T02:31:45.517Z,11.30
2023-05-16T02:34:14.587Z,11.30
2023-05-16T02:36:44.303Z,11.30
2023-05-16T02:39:13.191Z,11.30
2023-05-16T02:41:41.950Z,11.30
2023-05-16T02:44:11.040Z,11.30
2023-05-16T02:46:41.184Z,11.30
2023-05-16T02:49:09.841Z,11.30
2023-05-16T02:51:38.517Z,11.30
2023-05-16T02:54:09.401Z,11.30
2023-05-16T02:56:38.332Z,11.20
2023-05-16T02:59:07.111Z,11.20
2023-05-16T03:01:36.031Z,11.20
2023-05-16T03:04:06.365Z,11.30
2023-05-16T03:06:35.409Z,11.20
2023-05-16T03:09:04.248Z,11.20
2023-05-16T03:11:33.120Z,11.20
2023-05-16T03:14:02.150Z,11.20
2023-05-16T03:16:30.891Z,11.20
2023-05-16T03:18:59.789Z,11.20
2023-05-16T03:21:30.222Z,11.20
2023-05-16T03:23:59.353Z,11.20
2023-05-16T03:26:27.992Z,11.20
2023-05-16T03:28:56.785Z,11.20
2023-05-16T03:31:25.526Z,11.20
2023-05-16T03:33:54.368Z,11.20
2023-05-16T03:36:24.400Z,11.20
2023-05-16T03:38:54.905Z,11.20
2023-05-16T03:41:23.687Z,11.20
2023-05-16T03:43:52.489Z,11.10
2023-05-16T03:46:21.381Z,11.20
2023-05-16T03:48:50.208Z,11.20
2023-05-16T03:51:19.107Z,11.20
2023-05-16T03:53:47.771Z,11.20
2023-05-16T03:56:17.843Z,11.10
2023-05-16T03:58:46.834Z,11.20
2023-05-16T04:01:15.808Z,11.20
2023-05-16T04:03:44.610Z,11.30
2023-05-16T04:06:13.394Z,11.50
2023-05-16T04:08:45.004Z,12.00
2023-05-16T04:11:13.805Z,12.00
2023-05-16T04:13:43.854Z,11.80
2023-05-16T04:16:13.089Z,11.80
2023-05-16T04:18:42.021Z,11.80
2023-05-16T04:21:15.109Z,12.50
2023-05-16T04:23:44.039Z,13.30
2023-05-16T04:26:12.895Z,13.90
2023-05-16T04:28:43.238Z,14.40
2023-05-16T04:31:14.316Z,14.30
2023-05-16T04:33:43.332Z,14.20
2023-05-16T04:36:12.466Z,14.40
2023-05-16T04:38:41.961Z,14.50
2023-05-16T04:41:11.152Z,14.70
2023-05-16T04:43:40.169Z,14.60
2023-05-16T04:46:10.655Z,14.20
2023-05-16T04:48:39.450Z,13.90
2023-05-16T04:51:08.472Z,14.00
2023-05-16T04:53:37.252Z,14.20
2023-05-16T04:56:06.545Z,14.40
2023-05-16T04:58:35.364Z,14.70
2023-05-16T05:01:04.227Z,14.90
2023-05-16T05:03:35.013Z,14.50
2023-05-16T05:06:03.668Z,14.20
2023-05-16T05:08:32.368Z,13.60
2023-05-16T05:11:01.357Z,12.90
2023-05-16T05:13:30.056Z,12.60
2023-05-16T05:15:58.813Z,12.50
2023-05-16T05:18:27.613Z,12.30
2023-05-16T05:20:58.087Z,12.30
2023-05-16T05:23:26.973Z,12.20
2023-05-16T05:25:55.616Z,12.20
2023-05-16T05:28:24.330Z,12.10
2023-05-16T05:30:53.795Z,12.20
2023-05-16T05:33:29.774Z,12.20
2023-05-16T05:36:02.542Z,12.60
2023-05-16T05:38:32.836Z,12.80
2023-05-16T05:41:01.456Z,13.00
2023-05-16T05:43:30.101Z,13.10
2023-05-16T05:45:58.684Z,13.30
2023-05-16T05:48:28.707Z,13.30
2023-05-16T05:50:58.975Z,13.40
2023-05-16T05:53:27.601Z,13.60
2023-05-16T05:55:56.480Z,13.60
2023-05-16T05:58:25.136Z,13.70
2023-05-16T06:00:53.867Z,13.80
2023-05-16T06:03:22.691Z,13.90
2023-05-16T06:05:52.155Z,14.00
2023-05-16T06:08:22.245Z,13.80
2023-05-16T06:10:50.902Z,13.90
2023-05-16T06:13:19.501Z,14.00
2023-05-16T06:15:51.870Z,14.00
2023-05-16T06:18:20.609Z,13.90
2023-05-16T06:20:49.343Z,13.90
2023-05-16T06:23:19.915Z,13.90
2023-05-16T06:25:51.987Z,13.90
2023-05-16T06:28:20.656Z,14.00
2023-05-16T06:30:51.764Z,14.00
2023-05-16T06:33:20.711Z,14.10
2023-05-16T06:35:49.717Z,14.30
2023-05-16T06:38:19.769Z,14.50
2023-05-16T06:40:49.894Z,14.40
2023-05-16T06:43:19.095Z,14.30
2023-05-16T06:45:47.811Z,14.30
2023-05-16T06:48:16.919Z,14.40
2023-05-16T06:50:49.030Z,14.30
2023-05-16T06:53:18.104Z,14.20
2023-05-16T06:55:47.237Z,14.10
2023-05-16T06:58:17.885Z,14.00
2023-05-16T07:00:47.004Z,14.10
2023-05-16T07:03:16.441Z,14.30
2023-05-16T07:05:45.559Z,14.40
2023-05-16T07:08:14.423Z,14.50
2023-05-16T07:10:43.664Z,14.50
2023-05-16T07:13:12.840Z,14.50
2023-05-16T07:15:43.371Z,14.50
2023-05-16T07:18:12.384Z,14.60
2023-05-16T07:20:41.385Z,14.50
2023-05-16T07:23:10.438Z,14.40
2023-05-16T07:25:39.904Z,14.60
2023-05-16T07:28:08.790Z,14.60
2023-05-16T07:30:37.852Z,14.60
2023-05-16T07:33:08.363Z,14.80
2023-05-16T07:35:37.341Z,14.80
2023-05-16T07:38:06.664Z,14.90
2023-05-16T07:40:35.570Z,14.80
2023-05-16T07:43:04.518Z,14.90
2023-05-16T07:45:33.424Z,14.90
2023-05-16T07:48:02.437Z,15.00
2023-05-16T07:50:33.029Z,15.20
2023-05-16T07:53:02.008Z,15.50
2023-05-16T07:55:31.123Z,15.60
2023-05-16T07:58:00.237Z,15.60
2023-05-16T08:00:29.283Z,15.30
2023-05-16T08:02:59.253Z,15.20
2023-05-16T08:05:28.479Z,15.30
2023-05-16T08:07:59.482Z,15.40
2023-05-16T08:10:28.710Z,15.50
2023-05-16T08:12:57.680Z,15.60
2023-05-16T08:15:28.082Z,15.70
2023-05-16T08:17:59.768Z,15.70
2023-05-16T08:20:29.084Z,15.90
2023-05-16T08:23:00.125Z,15.90
2023-05-16T08:25:29.503Z,16.00
2023-05-16T08:27:58.544Z,16.20
2023-05-16T08:30:27.595Z,16.20
2023-05-16T08:32:56.849Z,16.50
2023-05-16T08:35:26.269Z,16.50
2023-05-16T08:37:55.326Z,16.80
2023-05-16T08:40:28.183Z,16.90
2023-05-16T08:42:57.348Z,17.00
2023-05-16T08:45:27.420Z,17.00
2023-05-16T08:47:57.622Z,16.70
2023-05-16T08:50:26.792Z,16.70
2023-05-16T08:52:56.558Z,17.00
2023-05-16T08:55:28.580Z,17.40
2023-05-16T08:57:58.049Z,17.50
2023-05-16T09:00:28.213Z,17.40
2023-05-16T09:02:57.439Z,17.30
2023-05-16T09:05:27.241Z,17.10
2023-05-16T09:07:56.428Z,17.00
2023-05-16T09:10:27.384Z,17.00
2023-05-16T09:12:56.632Z,17.00
2023-05-16T09:15:32.386Z,17.10
2023-05-16T09:18:03.069Z,17.00
2023-05-16T09:20:32.764Z,17.00
2023-05-16T09:23:02.230Z,17.20
2023-05-16T09:25:33.208Z,17.30
2023-05-16T09:28:03.621Z,17.50
2023-05-16T09:30:34.695Z,17.70
2023-05-16T09:33:04.287Z,17.70
2023-05-16T09:38:05.554Z,17.70
2023-05-16T09:40:36.331Z,17.90
2023-05-16T09:43:06.862Z,17.80
2023-05-16T09:45:36.601Z,17.90
2023-05-16T09:48:07.479Z,18.00
2023-05-16T09:50:38.174Z,17.90
2023-05-16T09:53:09.122Z,17.80
2023-05-16T09:55:39.786Z,17.80
2023-05-16T09:58:09.340Z,18.00
2023-05-16T10:00:39.428Z,18.00
2023-05-16T10:03:10.259Z,18.10
2023-05-16T10:05:39.656Z,18.00
2023-05-16T10:08:08.966Z,17.90
2023-05-16T10:10:40.933Z,18.00
2023-05-16T10:13:11.933Z,18.10
2023-05-16T10:15:42.168Z,18.30
2023-05-16T10:18:13.541Z,18.50
2023-05-16T10:20:44.509Z,18.60
2023-05-16T10:23:19.005Z,18.60
2023-05-16T10:25:50.908Z,18.50
2023-05-16T10:28:20.788Z,18.30
2023-05-16T10:30:50.697Z,18.30
2023-05-16T10:33:20.979Z,18.70
2023-05-16T10:35:51.211Z,18.80
2023-05-16T10:38:22.127Z,18.80
2023-05-16T10:40:53.312Z,18.70
2023-05-16T10:43:26.742Z,18.80
2023-05-16T10:45:57.282Z,18.90
2023-05-16T10:48:33.532Z,18.70
2023-05-16T10:51:04.153Z,18.60
2023-05-16T10:53:34.669Z,18.60
2023-05-16T10:56:10.111Z,18.60
2023-05-16T10:58:46.883Z,18.70
2023-05-16T11:01:24.179Z,18.60
2023-05-16T11:04:10.110Z,18.50
2023-05-16T11:06:52.830Z,18.40
2023-05-16T11:09:24.117Z,18.40
2023-05-16T11:11:59.594Z,18.50
2023-05-16T11:14:32.087Z,18.70
2023-05-16T11:17:08.149Z,18.40
2023-05-16T11:19:42.236Z,18.20
2023-05-16T11:22:30.055Z,18.10
2023-05-16T11:25:02.579Z,18.10
2023-05-16T11:27:34.550Z,18.00
2023-05-16T11:30:13.663Z,18.10
2023-05-16T11:32:45.102Z,18.10
2023-05-16T11:35:15.465Z,18.10
2023-05-16T11:37:44.974Z,18.10
2023-05-16T11:40:15.192Z,18.00
2023-05-16T11:42:48.435Z,17.90
2023-05-16T11:45:19.209Z,17.80
2023-05-16T11:47:50.212Z,17.90
2023-05-16T11:50:20.874Z,18.00
2023-05-16T11:52:54.272Z,18.20
2023-05-16T11:55:40.399Z,18.60
2023-05-16T11:58:12.545Z,18.80
2023-05-16T12:00:49.969Z,19.00
2023-05-16T12:03:20.571Z,19.00
2023-05-16T12:05:54.371Z,19.10
2023-05-16T12:08:24.791Z,19.40
2023-05-16T12:10:54.982Z,19.40
2023-05-16T12:13:26.551Z,19.20
2023-05-16T12:15:55.561Z,19.30
2023-05-16T12:18:26.568Z,18.90
2023-05-16T12:20:55.415Z,18.50
2023-05-16T12:23:24.110Z,18.40
2023-05-16T12:25:55.535Z,18.60
2023-05-16T12:28:25.642Z,18.70
2023-05-16T12:30:54.291Z,18.80
2023-05-16T12:33:23.061Z,18.80
2023-05-16T12:35:54.448Z,18.70
2023-05-16T12:38:26.466Z,18.60
2023-05-16T12:40:59.788Z,18.60
2023-05-16T12:43:30.577Z,18.70
2023-05-16T12:45:59.841Z,18.80
2023-05-16T12:48:34.411Z,18.90
2023-05-16T12:51:14.950Z,18.80
2023-05-16T12:53:54.391Z,18.70
2023-05-16T12:56:30.670Z,18.80
2023-05-16T12:59:00.588Z,18.60
2023-05-16T13:01:29.415Z,18.50
2023-05-16T13:03:58.263Z,18.50
2023-05-16T13:06:27.581Z,18.20
2023-05-16T13:08:56.405Z,17.90
2023-05-16T13:11:26.103Z,17.90
2023-05-16T13:13:54.907Z,17.80
2023-05-16T13:16:25.123Z,17.80
2023-05-16T13:18:53.982Z,17.90
2023-05-16T13:21:23.097Z,18.10
2023-05-16T13:23:51.845Z,18.10
2023-05-16T13:26:21.618Z,18.20
2023-05-16T13:28:53.107Z,18.10
2023-05-16T13:31:22.492Z,17.90
2023-05-16T13:33:52.741Z,17.80
2023-05-16T13:36:21.383Z,17.90
2023-05-16T13:38:50.399Z,18.00
2023-05-16T13:41:19.178Z,18.00
2023-05-16T13:43:47.921Z,17.80
2023-05-16T13:46:16.755Z,17.80
2023-05-16T13:48:45.463Z,18.00
2023-05-16T13:51:15.791Z,17.80
2023-05-16T13:53:44.436Z,17.90
2023-05-16T13:56:13.209Z,17.80
2023-05-16T13:58:52.872Z,17.60
2023-05-16T14:01:29.467Z,17.60
2023-05-16T14:03:58.584Z,17.50
2023-05-16T14:06:28.716Z,17.50
2023-05-16T14:08:57.574Z,17.50
2023-05-16T14:11:29.194Z,17.40
2023-05-16T14:13:59.065Z,17.30
2023-05-16T14:16:28.017Z,17.20
2023-05-16T14:18:56.734Z,17.40
2023-05-16T14:21:25.427Z,17.40
2023-05-16T14:23:55.405Z,17.30
2023-05-16T14:26:25.533Z,17.30
2023-05-16T14:28:56.092Z,17.20
2023-05-16T14:31:24.956Z,16.90
2023-05-16T14:33:53.641Z,17.00
2023-05-16T14:36:22.488Z,16.80
2023-05-16T14:38:51.515Z,16.50
2023-05-16T14:41:22.645Z,16.40
2023-05-16T14:43:52.219Z,16.20
2023-05-16T14:46:21.087Z,16.20
2023-05-16T14:48:49.711Z,16.20
2023-05-16T14:51:18.480Z,16.10
2023-05-16T14:53:47.317Z,16.20
2023-05-16T14:56:16.537Z,16.10
2023-05-16T14:58:46.722Z,16.00
2023-05-16T15:01:16.720Z,15.80
2023-05-16T15:03:54.688Z,15.80
2023-05-16T15:06:24.403Z,15.80
2023-05-16T15:08:53.090Z,15.60
2023-05-16T15:11:21.873Z,15.50
2023-05-16T15:13:52.154Z,15.40
2023-05-16T15:16:21.004Z,15.20
2023-05-16T15:18:49.821Z,15.20
2023-05-16T15:21:18.587Z,15.20
2023-05-16T15:23:47.411Z,15.20
2023-05-16T15:26:16.629Z,15.20
2023-05-16T15:28:45.309Z,15.20
2023-05-16T15:31:15.430Z,15.00
2023-05-16T15:33:47.605Z,15.00
2023-05-16T15:36:17.190Z,15.00
2023-05-16T15:38:46.804Z,15.10
2023-05-16T15:41:27.176Z,15.10
2023-05-16T15:44:04.685Z,15.20
2023-05-16T15:46:34.989Z,15.20
2023-05-16T15:49:03.939Z,15.00
2023-05-16T15:51:32.765Z,14.80
2023-05-16T15:54:01.623Z,14.80
2023-05-16T15:56:30.480Z,14.70
2023-05-16T15:58:59.403Z,14.80
2023-05-16T16:01:28.014Z,14.80
2023-05-16T16:03:58.275Z,14.70
2023-05-16T16:06:27.143Z,14.80
2023-05-16T16:08:56.089Z,14.70
2023-05-16T16:11:28.474Z,14.70
2023-05-16T16:13:57.137Z,14.80
2023-05-16T16:16:25.906Z,14.80
2023-05-16T16:18:54.982Z,14.80
2023-05-16T16:21:25.006Z,14.70
2023-05-16T16:23:53.716Z,14.30
2023-05-16T16:26:22.540Z,14.10
2023-05-16T16:28:51.362Z,14.10
2023-05-16T16:31:20.710Z,14.00
2023-05-16T16:33:50.080Z,14.10
2023-05-16T16:36:19.818Z,14.10
2023-05-16T16:38:49.977Z,14.10
2023-05-16T16:41:18.875Z,14.10
2023-05-16T16:43:47.595Z,14.00
2023-05-16T16:46:16.410Z,14.00
2023-05-16T16:48:45.288Z,14.10
2023-05-16T16:51:14.332Z,14.10
2023-05-16T16:53:43.315Z,14.00
2023-05-16T16:56:14.194Z,13.90
2023-05-16T16:58:43.062Z,13.80
2023-05-16T17:01:12.953Z,13.80
2023-05-16T17:03:42.107Z,13.80
2023-05-16T17:06:11.228Z,13.80
2023-05-16T17:08:40.333Z,13.70
2023-05-16T17:11:09.272Z,13.50
2023-05-16T17:13:41.996Z,13.40
2023-05-16T17:16:11.972Z,13.20
2023-05-16T17:18:41.298Z,13.00
2023-05-16T17:21:13.142Z,13.00
2023-05-16T17:23:44.150Z,12.90
2023-05-16T17:26:14.400Z,12.90
2023-05-16T17:28:46.724Z,12.80
2023-05-16T17:31:15.985Z,12.70
2023-05-16T17:33:44.833Z,12.60
2023-05-16T17:36:13.899Z,12.50
2023-05-16T17:38:42.791Z,12.50
2023-05-16T17:41:11.997Z,12.40
2023-05-16T17:43:41.683Z,12.30
2023-05-16T17:46:13.110Z,12.30
2023-05-16T17:48:42.357Z,12.30
2023-05-16T17:51:11.584Z,12.20
2023-05-16T17:53:40.477Z,12.20
2023-05-16T17:56:09.344Z,12.20
2023-05-16T17:58:39.228Z,12.10
2023-05-16T18:01:09.608Z,12.10
2023-05-16T18:03:41.544Z,12.10
2023-05-16T18:06:11.554Z,12.00
2023-05-16T18:08:40.560Z,12.00
2023-05-16T18:11:10.203Z,12.00
2023-05-16T18:13:39.387Z,12.00
2023-05-16T18:16:08.837Z,12.00
2023-05-16T18:18:39.693Z,12.00
2023-05-16T18:21:08.716Z,12.00
2023-05-16T18:23:37.902Z,12.00
2023-05-16T18:26:07.031Z,12.00
2023-05-16T18:28:36.072Z,11.90
2023-05-16T18:31:05.094Z,12.00
2023-05-16T18:33:33.986Z,12.00
2023-05-16T18:36:04.843Z,12.00
2023-05-16T18:38:34.069Z,12.00
2023-05-16T18:41:03.140Z,12.00
2023-05-16T18:43:35.420Z,12.00
2023-05-16T18:46:04.722Z,12.00
2023-05-16T18:48:35.955Z,12.00
2023-05-16T18:51:07.024Z,12.00
2023-05-16T18:53:36.087Z,12.00
2023-05-16T18:56:05.534Z,12.00
2023-05-16T18:58:34.372Z,12.00
2023-05-16T19:01:04.080Z,12.10
2023-05-16T19:03:33.192Z,12.00
2023-05-16T19:06:02.286Z,12.10
2023-05-16T19:08:46.446Z,12.10
2023-05-16T19:11:17.120Z,12.10
2023-05-16T19:13:46.046Z,12.20
2023-05-16T19:16:15.335Z,12.00
2023-05-16T19:18:44.379Z,12.00
2023-05-16T19:21:14.286Z,11.90
2023-05-16T19:23:45.435Z,12.00
2023-05-16T19:26:14.267Z,11.90
2023-05-16T19:28:43.205Z,11.90
2023-05-16T19:31:12.384Z,11.90
2023-05-16T19:33:41.650Z,11.90
2023-05-16T19:36:10.500Z,11.90
2023-05-16T19:38:39.503Z,11.90
2023-05-16T19:41:10.282Z,11.90
2023-05-16T19:43:39.468Z,11.90
2023-05-16T19:46:08.304Z,11.90
2023-05-16T19:48:37.659Z,11.90
2023-05-16T19:51:07.090Z,11.90
2023-05-16T19:53:36.228Z,11.90
2023-05-16T19:56:05.810Z,11.90
2023-05-16T19:58:36.340Z,11.90
2023-05-16T20:01:05.724Z,11.90
2023-05-16T20:03:34.573Z,11.90
2023-05-16T20:06:03.609Z,11.90
2023-05-16T20:08:32.600Z,11.90
2023-05-16T20:11:01.552Z,11.90
2023-05-16T20:13:30.881Z,11.90
2023-05-16T20:16:01.863Z,11.80
2023-05-16T20:18:30.878Z,11.80
2023-05-16T20:20:59.804Z,11.80
2023-05-16T20:23:29.009Z,11.80
2023-05-16T20:25:57.990Z,11.70
2023-05-16T20:28:27.073Z,11.70
2023-05-16T20:30:56.588Z,11.70
2023-05-16T20:33:27.499Z,11.70
2023-05-16T20:35:56.470Z,11.70
2023-05-16T20:38:25.392Z,11.70
2023-05-16T20:40:54.316Z,11.60
2023-05-16T20:43:24.669Z,11.60
2023-05-16T20:45:55.348Z,11.60
2023-05-16T20:48:24.251Z,11.60
2023-05-16T20:50:56.716Z,11.50
2023-05-16T20:53:25.927Z,11.50
2023-05-16T20:55:55.117Z,11.60
2023-05-16T20:58:24.072Z,11.50
2023-05-16T21:00:53.187Z,11.60
2023-05-16T21:03:22.243Z,11.60
2023-05-16T21:05:51.728Z,11.50
2023-05-16T21:08:22.388Z,11.50
2023-05-16T21:10:51.225Z,11.50
2023-05-16T21:13:20.382Z,11.40
2023-05-16T21:15:49.699Z,11.40
2023-05-16T21:18:18.796Z,11.40
2023-05-16T21:20:47.971Z,11.40
2023-05-16T21:23:16.967Z,11.40
2023-05-16T21:25:47.589Z,11.40
2023-05-16T21:28:16.491Z,11.40
2023-05-16T21:30:45.521Z,11.30
2023-05-16T21:33:14.618Z,11.40
2023-05-16T21:35:44.029Z,11.40
2023-05-16T21:38:13.032Z,11.30
2023-05-16T21:40:42.533Z,11.30
2023-05-16T21:43:13.181Z,11.30
2023-05-16T21:45:42.228Z,11.30
2023-05-16T21:48:11.193Z,11.30
2023-05-16T21:50:40.478Z,11.30
2023-05-16T21:53:09.380Z,11.20
2023-05-16T21:55:38.361Z,12.10
2023-05-16T21:58:07.416Z,11.30
2023-05-16T22:00:39.162Z,11.30
2023-05-16T22:03:08.271Z,11.40
2023-05-16T22:05:37.304Z,11.30
2023-05-16T22:08:07.957Z,11.30
2023-05-16T22:10:36.978Z,11.30
2023-05-16T22:13:06.361Z,11.30
2023-05-16T22:15:35.451Z,11.30
2023-05-16T22:18:06.396Z,11.30
2023-05-16T22:20:35.480Z,11.30
2023-05-16T22:23:04.524Z,11.40
2023-05-16T22:25:33.537Z,11.50
2023-05-16T22:28:02.604Z,11.40
2023-05-16T22:30:31.572Z,11.30
2023-05-16T22:33:01.160Z,11.40
2023-05-16T22:35:34.511Z,11.30
2023-05-16T22:38:03.569Z,11.30
2023-05-16T22:40:32.474Z,11.30
2023-05-16T22:43:03.062Z,11.30
2023-05-16T22:45:32.201Z,11.30
2023-05-16T22:48:01.033Z,11.40
2023-05-16T22:50:31.755Z,11.40
2023-05-16T22:53:00.763Z,10.70
2023-05-16T22:55:30.164Z,11.50
2023-05-16T22:58:01.030Z,11.50
2023-05-16T23:00:30.141Z,11.50
2023-05-16T23:02:59.190Z,11.50
2023-05-16T23:05:28.307Z,11.40
2023-05-16T23:07:59.088Z,11.30
2023-05-16T23:10:28.169Z,11.30
2023-05-16T23:12:57.252Z,11.30
2023-05-16T23:15:26.424Z,11.40
2023-05-16T23:17:55.531Z,11.40
2023-05-16T23:20:24.722Z,11.40
2023-05-16T23:22:53.637Z,11.40
2023-05-16T23:25:24.531Z,11.40
2023-05-16T23:27:57.668Z,11.30
2023-05-16T23:30:27.182Z,11.30
2023-05-16T23:32:56.632Z,11.30
2023-05-16T23:35:26.249Z,11.20
2023-05-16T23:37:55.585Z,11.20
2023-05-16T23:40:26.119Z,11.20
2023-05-16T23:42:55.119Z,11.10
2023-05-16T23:45:24.025Z,11.20
2023-05-16T23:47:53.179Z,11.20
2023-05-16T23:50:23.546Z,11.20
2023-05-16T23:52:52.609Z,11.10
2023-05-16T23:55:21.558Z,11.10
2023-05-16T23:57:52.106Z,11.00
